Time;durP1;ratioP1;P1;durP2;ratioP2;P2;SDS_P1;SDS_P2;PMS_P1;PMS_P2;Temp;Humidity;BMP_temperature;BMP_pressure;BME280_temperature;BME280_humidity;BME280_pressure;Samples;Min_cycle;Max_cycle;Signal;HPM_P1;HPM_P2
2021/09/17 00:00:52;;;;;;;101.85;19.77;;;;;;;7.66;100.00;101019.54;1714938;83;21037;-53
2021/09/17 00:03:19;;;;;;;43.75;16.30;;;;;;;7.67;100.00;101018.68;1717152;83;21013;-54
2021/09/17 00:05:47;;;;;;;44.35;15.18;;;;;;;7.66;100.00;101019.54;1716916;83;21400;-52
2021/09/17 00:08:13;;;;;;;32.28;14.73;;;;;;;7.64;100.00;101014.81;1716874;83;21515;-52
2021/09/17 00:10:41;;;;;;;24.12;16.20;;;;;;;7.62;100.00;101022.52;1716742;83;21520;-53
2021/09/17 00:13:08;;;;;;;29.82;15.35;;;;;;;7.56;100.00;101023.36;1716998;83;21014;-54
2021/09/17 00:15:36;;;;;;;28.25;14.75;;;;;;;7.52;100.00;101025.50;1716826;83;20966;-54
2021/09/17 00:18:03;;;;;;;58.23;14.68;;;;;;;7.51;100.00;101022.94;1721528;83;21026;-53
2021/09/17 00:20:30;;;;;;;38.63;13.83;;;;;;;7.48;100.00;101027.22;1721348;83;21155;-54
2021/09/17 00:22:58;;;;;;;35.85;14.30;;;;;;;7.47;100.00;101018.19;1721409;83;20951;-52
2021/09/17 00:25:24;;;;;;;117.93;18.23;;;;;;;7.44;100.00;101019.02;1721475;82;21492;-51
2021/09/17 00:27:52;;;;;;;59.13;16.35;;;;;;;7.42;100.00;101021.18;1721444;82;20892;-53
2021/09/17 00:30:19;;;;;;;71.12;16.55;;;;;;;7.41;100.00;101024.61;1721733;82;21457;-54
2021/09/17 00:32:45;;;;;;;58.92;16.57;;;;;;;7.40;100.00;101019.87;1721535;83;21134;-53
2021/09/17 00:35:14;;;;;;;69.82;16.20;;;;;;;7.38;100.00;101020.30;1721427;83;20943;-51
2021/09/17 00:37:40;;;;;;;77.62;17.70;;;;;;;7.39;100.00;101022.46;1721434;83;20856;-51
2021/09/17 00:40:10;;;;;;;56.00;15.40;;;;;;;7.39;100.00;101027.17;1721491;83;20903;-52
2021/09/17 00:42:39;;;;;;;54.65;14.60;;;;;;;7.41;100.00;101015.16;1721613;83;21471;-52
2021/09/17 00:45:08;;;;;;;36.88;15.28;;;;;;;7.42;100.00;101009.14;1721488;83;22023;-53
2021/09/17 00:47:36;;;;;;;45.88;16.40;;;;;;;7.38;100.00;101004.84;1721498;83;20998;-53
2021/09/17 00:50:12;;;;;;;61.80;22.75;;;;;;;7.33;100.00;100994.55;1721469;83;20974;-54
2021/09/17 00:52:39;;;;;;;90.03;31.48;;;;;;;7.30;100.00;101003.96;1721400;82;20947;-54
2021/09/17 00:55:08;;;;;;;98.37;35.60;;;;;;;7.27;100.00;100996.23;1721503;83;21010;-51
2021/09/17 00:57:35;;;;;;;114.85;41.08;;;;;;;7.22;100.00;100993.63;1721348;83;21154;-51
2021/09/17 01:00:08;;;;;;;134.43;55.15;;;;;;;7.19;100.00;100998.77;1721176;83;20944;-52
2021/09/17 01:02:34;;;;;;;116.05;42.43;;;;;;;7.15;100.00;100999.17;1721238;83;21050;-53
2021/09/17 01:05:01;;;;;;;121.82;45.00;;;;;;;7.12;100.00;100999.16;1694627;83;21491;-52
2021/09/17 01:07:29;;;;;;;114.12;40.85;;;;;;;7.11;100.00;100994.02;1721605;82;20936;-53
2021/09/17 01:09:56;;;;;;;93.65;38.20;;;;;;;7.09;100.00;100992.71;1721527;83;21809;-53
2021/09/17 01:12:23;;;;;;;110.05;38.92;;;;;;;7.10;100.00;100993.14;1721486;83;20991;-54
2021/09/17 01:14:50;;;;;;;70.50;31.05;;;;;;;7.10;100.00;100992.30;1721425;83;21037;-52
2021/09/17 01:17:20;;;;;;;94.45;36.83;;;;;;;7.10;100.00;100991.86;1721345;83;21029;-51
2021/09/17 01:19:48;;;;;;;58.78;26.27;;;;;;;7.10;100.00;100992.30;1721486;83;20990;-54
2021/09/17 01:22:16;;;;;;;60.67;25.90;;;;;;;7.07;100.00;100985.41;1721364;83;21074;-52
2021/09/17 01:24:44;;;;;;;49.00;23.83;;;;;;;7.05;100.00;100984.10;1721341;83;21458;-54
2021/09/17 01:27:11;;;;;;;43.68;21.02;;;;;;;7.04;100.00;100989.27;1721553;82;21484;-54
2021/09/17 01:29:37;;;;;;;21.12;11.70;;;;;;;7.01;100.00;100979.80;1721317;83;21496;-53
2021/09/17 01:32:04;;;;;;;20.17;10.45;;;;;;;6.99;100.00;100984.52;1721483;83;20928;-53
2021/09/17 01:34:33;;;;;;;31.15;14.18;;;;;;;6.99;100.00;100978.94;1692414;83;20947;-52
2021/09/17 01:36:59;;;;;;;32.13;16.25;;;;;;;7.01;100.00;100974.65;1721601;83;21481;-53
2021/09/17 01:39:25;;;;;;;33.75;16.93;;;;;;;7.02;100.00;100969.09;1721666;83;20975;-54
2021/09/17 01:41:53;;;;;;;30.72;14.87;;;;;;;6.99;100.00;100958.78;1721297;82;20951;-51
2021/09/17 01:44:19;;;;;;;25.02;12.60;;;;;;;6.94;100.00;100965.59;1721231;82;21057;-53
2021/09/17 01:46:46;;;;;;;28.52;13.40;;;;;;;6.88;100.00;100969.02;1721538;82;21146;-53
2021/09/17 01:49:13;;;;;;;29.23;14.73;;;;;;;6.82;100.00;100959.55;1721231;83;21014;-53
2021/09/17 01:51:39;;;;;;;21.70;12.07;;;;;;;6.76;100.00;100958.23;1721791;83;20868;-53
2021/09/17 01:54:07;;;;;;;27.90;12.58;;;;;;;6.73;100.00;100961.64;1721394;82;20951;-53
2021/09/17 01:56:34;;;;;;;21.65;11.10;;;;;;;6.68;100.00;100955.62;1721507;83;20885;-54
2021/09/17 01:59:02;;;;;;;24.87;12.05;;;;;;;6.67;100.00;100953.02;1721318;83;21402;-54
2021/09/17 02:01:28;;;;;;;21.40;11.53;;;;;;;6.65;100.00;100953.44;1703017;83;20936;-51
2021/09/17 02:03:56;;;;;;;16.85;10.82;;;;;;;6.61;100.00;100948.28;1680643;83;20995;-52
2021/09/17 02:06:24;;;;;;;19.35;10.95;;;;;;;6.59;100.00;100945.28;1680177;84;21083;-53
2021/09/17 02:08:52;;;;;;;26.35;11.22;;;;;;;6.61;100.00;100947.44;1700548;83;20936;-52
2021/09/17 02:11:19;;;;;;;26.52;11.20;;;;;;;6.60;100.00;100942.70;1700655;84;21777;-55
2021/09/17 02:13:47;;;;;;;17.35;10.45;;;;;;;6.61;100.00;100943.14;1700517;84;20975;-52
2021/09/17 02:16:15;;;;;;;24.43;10.30;;;;;;;6.64;100.00;100935.00;1700573;84;21473;-54
2021/09/17 02:18:43;;;;;;;14.53;8.98;;;;;;;6.65;100.00;100938.87;1700399;83;20869;-52
2021/09/17 02:21:18;;;;;;;18.95;10.45;;;;;;;6.67;100.00;100939.75;1700801;84;21026;-51
2021/09/17 02:23:41;;;;;;;20.27;10.58;;;;;;;6.67;100.00;100937.17;1700151;84;21019;-54
2021/09/17 02:26:08;;;;;;;23.92;10.18;;;;;;;6.67;100.00;100933.73;1695916;84;20961;-52
2021/09/17 02:28:35;;;;;;;19.30;10.03;;;;;;;6.66;100.00;100936.74;1695655;84;20992;-51
2021/09/17 02:31:01;;;;;;;15.08;9.65;;;;;;;6.64;100.00;100931.14;1695817;84;20968;-53
2021/09/17 02:33:27;;;;;;;19.77;9.48;;;;;;;6.60;100.00;100929.84;1695978;84;21011;-53
2021/09/17 02:35:54;;;;;;;14.23;8.03;;;;;;;6.56;100.00;100928.52;1695978;84;21187;-52
2021/09/17 02:38:22;;;;;;;19.42;9.68;;;;;;;6.55;100.00;100921.66;1695525;84;20960;-52
2021/09/17 02:40:49;;;;;;;16.40;9.13;;;;;;;6.54;100.00;100923.38;1695895;84;21581;-53
2021/09/17 02:43:16;;;;;;;19.37;8.88;;;;;;;6.52;100.00;100913.52;1695908;84;21454;-53
2021/09/17 02:45:43;;;;;;;13.62;8.13;;;;;;;6.54;100.00;100916.08;1695682;84;21051;-53
2021/09/17 02:48:10;;;;;;;19.25;8.33;;;;;;;6.53;100.00;100915.23;1643963;84;21098;-51
2021/09/17 02:50:37;;;;;;;12.33;8.10;;;;;;;6.50;100.00;100911.77;1695867;83;21012;-51
2021/09/17 02:53:05;;;;;;;14.87;8.30;;;;;;;6.46;100.00;100908.34;1696023;84;21063;-51
2021/09/17 02:55:32;;;;;;;10.82;7.80;;;;;;;6.43;100.00;100909.17;1696069;84;21618;-51
2021/09/17 02:57:58;;;;;;;14.75;7.97;;;;;;;6.42;100.00;100911.72;1695770;84;21465;-53
2021/09/17 03:00:26;;;;;;;15.63;8.48;;;;;;;6.40;100.00;100913.42;1697424;83;21489;-52
2021/09/17 03:02:53;;;;;;;17.05;8.30;;;;;;;6.38;100.00;100913.84;1711199;83;21560;-53
2021/09/17 03:05:20;;;;;;;13.78;8.03;;;;;;;6.37;100.00;100908.27;1701237;84;20936;-54
2021/09/17 03:07:46;;;;;;;14.07;7.62;;;;;;;6.35;100.00;100908.28;1681033;84;21551;-54
2021/09/17 03:10:14;;;;;;;14.70;8.23;;;;;;;6.35;100.00;100906.11;1701308;84;21050;-51
2021/09/17 03:12:42;;;;;;;14.28;8.18;;;;;;;6.35;100.00;100907.40;1685732;85;20945;-51
2021/09/17 03:15:11;;;;;;;14.93;7.75;;;;;;;6.33;100.00;100905.68;1680856;84;20996;-53
2021/09/17 03:17:37;;;;;;;12.45;7.78;;;;;;;6.30;100.00;100906.95;1711069;82;20916;-51
2021/09/17 03:20:05;;;;;;;14.55;8.10;;;;;;;6.31;100.00;100902.66;1701199;84;20999;-55
2021/09/17 03:22:33;;;;;;;12.25;8.90;;;;;;;6.29;100.00;100906.92;1710857;83;20932;-52
2021/09/17 03:25:00;;;;;;;16.30;8.18;;;;;;;6.28;100.00;100907.38;1701441;84;21132;-52
2021/09/17 03:27:28;;;;;;;13.43;8.38;;;;;;;6.29;100.00;100898.80;1710926;83;21021;-52
2021/09/17 03:29:54;;;;;;;15.63;9.30;;;;;;;6.29;100.00;100906.52;1701436;84;20967;-53
2021/09/17 03:32:21;;;;;;;19.20;9.30;;;;;;;6.27;100.00;100909.91;1710899;83;20951;-51
2021/09/17 03:34:48;;;;;;;16.27;8.48;;;;;;;6.27;100.00;100911.20;1680990;85;21031;-51
2021/09/17 03:37:15;;;;;;;15.70;8.25;;;;;;;6.26;100.00;100908.20;1710992;83;21068;-52
2021/09/17 03:39:41;;;;;;;19.35;9.58;;;;;;;6.27;100.00;100909.91;1675489;84;21489;-52
2021/09/17 03:42:09;;;;;;;21.90;9.75;;;;;;;6.27;100.00;100909.91;1710913;83;20955;-54
2021/09/17 03:44:35;;;;;;;32.88;9.40;;;;;;;6.27;100.00;100911.20;1701559;84;21035;-52
2021/09/17 03:47:04;;;;;;;15.40;8.65;;;;;;;6.28;100.00;100916.37;1681287;85;20993;-52
2021/09/17 03:49:31;;;;;;;22.00;8.53;;;;;;;6.33;100.00;100916.41;1701320;84;21809;-52
2021/09/17 03:51:58;;;;;;;19.65;8.30;;;;;;;6.36;100.00;100910.41;1680792;85;20932;-52
2021/09/17 03:54:27;;;;;;;18.07;8.40;;;;;;;6.40;100.00;100903.14;1701339;84;21294;-53
2021/09/17 03:56:57;;;;;;;13.15;8.68;;;;;;;6.46;100.00;100907.91;1710887;83;21014;-51
2021/09/17 03:59:23;;;;;;;14.13;9.08;;;;;;;6.58;100.00;100904.53;1700907;84;21534;-54
2021/09/17 04:01:49;;;;;;;21.57;9.70;;;;;;;6.70;100.00;100896.02;1718793;83;21138;-52
2021/09/17 04:04:16;;;;;;;14.98;7.72;;;;;;;6.84;100.00;100892.22;1691086;84;20955;-53
2021/09/17 04:06:43;;;;;;;14.93;8.08;;;;;;;7.00;100.00;100901.30;1721474;83;21561;-53
2021/09/17 04:09:11;;;;;;;13.93;8.55;;;;;;;7.21;100.00;100898.36;1691064;84;21516;-51
2021/09/17 04:11:38;;;;;;;13.53;7.35;;;;;;;7.41;100.00;100899.69;1721610;83;20931;-51
2021/09/17 04:14:04;;;;;;;17.27;6.78;;;;;;;7.63;100.00;100900.56;1691181;84;21139;-51
2021/09/17 04:16:30;;;;;;;13.55;6.92;;;;;;;7.83;100.00;100895.44;1721441;82;21422;-51
2021/09/17 04:18:57;;;;;;;17.12;7.08;;;;;;;8.02;100.00;100897.57;1691036;84;20987;-53
2021/09/17 04:21:26;;;;;;;16.40;6.22;;;;;;;8.24;100.00;100894.97;1721514;82;20999;-52
2021/09/17 04:23:54;;;;;;;14.07;6.70;;;;;;;8.51;100.00;100896.22;1691167;84;21003;-53
2021/09/17 04:26:22;;;;;;;11.90;6.33;;;;;;;8.80;100.00;100886.22;1721555;83;21074;-53
2021/09/17 04:28:50;;;;;;;14.83;6.40;;;;;;;9.08;100.00;100884.37;1690967;84;20935;-54
2021/09/17 04:31:17;;;;;;;13.58;6.17;;;;;;;9.35;100.00;100882.50;1721515;82;21026;-52
2021/09/17 04:33:44;;;;;;;14.43;5.97;;;;;;;9.60;100.00;100881.03;1691414;84;20971;-52
2021/09/17 04:36:10;;;;;;;14.80;5.50;;;;;;;9.83;100.00;100882.58;1694707;83;21074;-54
2021/09/17 04:38:37;;;;;;;15.08;5.10;;;;;;;10.00;100.00;100879.41;1691139;84;21151;-53
2021/09/17 04:41:03;;;;;;;10.58;5.90;;;;;;;10.18;100.00;100876.20;1721329;82;21505;-52
2021/09/17 04:43:29;;;;;;;20.55;5.65;;;;;;;10.32;100.00;100882.11;1690903;83;20900;-52
2021/09/17 04:45:56;;;;;;;12.55;4.85;;;;;;;10.44;100.00;100869.50;1721448;83;21008;-53
2021/09/17 04:48:22;;;;;;;17.95;5.70;;;;;;;10.58;100.00;100873.23;1690989;84;21046;-52
2021/09/17 04:50:49;;;;;;;9.78;4.87;;;;;;;10.68;100.00;100883.04;1721504;83;21567;-54
2021/09/17 04:53:15;;;;;;;10.63;4.83;;;;;;;10.75;100.00;100871.72;1691068;83;20959;-52
2021/09/17 04:55:42;;;;;;;9.43;4.78;;;;;;;10.82;100.00;100873.80;1721215;82;21015;-52
2021/09/17 04:58:09;;;;;;;13.00;5.10;;;;;;;10.89;100.00;100875.88;1690896;83;20956;-53
2021/09/17 05:00:37;;;;;;;10.65;4.95;;;;;;;10.96;100.00;100876.64;1719055;83;20939;-52
2021/09/17 05:03:04;;;;;;;27.42;5.15;;;;;;;11.00;100.00;100871.86;1695812;83;21107;-52
2021/09/17 05:05:30;;;;;;;8.33;5.28;;;;;;;11.05;100.00;100862.28;1695721;84;21411;-52
2021/09/17 05:07:58;;;;;;;13.38;4.50;;;;;;;11.09;100.00;100860.06;1695777;84;21028;-52
2021/09/17 05:10:25;;;;;;;17.35;4.40;;;;;;;11.16;99.34;100862.97;1695691;84;20996;-54
2021/09/17 05:12:52;;;;;;;11.08;4.80;;;;;;;11.23;98.48;100858.99;1666201;84;21019;-54
2021/09/17 05:15:19;;;;;;;12.78;4.92;;;;;;;11.29;97.33;100865.41;1695840;84;21133;-52
2021/09/17 05:17:45;;;;;;;14.85;4.78;;;;;;;11.32;96.23;100860.17;1666071;84;21012;-54
2021/09/17 05:20:12;;;;;;;11.80;4.53;;;;;;;11.38;95.30;100861.82;1695734;84;20956;-54
2021/09/17 05:22:41;;;;;;;14.78;4.60;;;;;;;11.43;94.36;100857.41;1695898;84;21008;-54
2021/09/17 05:25:09;;;;;;;10.63;4.90;;;;;;;11.47;93.72;100858.62;1695857;84;20937;-53
2021/09/17 05:27:37;;;;;;;12.43;4.47;;;;;;;11.53;93.42;100864.61;1695809;84;21182;-53
2021/09/17 05:30:08;;;;;;;14.23;5.10;;;;;;;11.58;93.18;100858.91;1665765;84;20991;-52
2021/09/17 05:32:37;;;;;;;10.58;4.85;;;;;;;11.61;92.61;100853.21;1696028;84;20960;-53
2021/09/17 05:35:05;;;;;;;7.45;4.37;;;;;;;11.70;92.21;100853.96;1695809;84;21047;-51
2021/09/17 05:37:32;;;;;;;9.68;4.78;;;;;;;11.76;91.48;100850.83;1666135;84;21537;-52
2021/09/17 05:39:58;;;;;;;7.55;4.42;;;;;;;11.84;90.59;100846.78;1695827;84;21125;-54
2021/09/17 05:42:25;;;;;;;8.63;4.78;;;;;;;11.93;90.06;100855.72;1695955;84;21016;-52
2021/09/17 05:44:53;;;;;;;15.63;4.10;;;;;;;12.02;89.26;100846.95;1695808;84;21004;-52
2021/09/17 05:47:21;;;;;;;9.95;4.70;;;;;;;12.12;88.44;100846.77;1695752;84;20912;-55
2021/09/17 05:49:47;;;;;;;11.05;4.75;;;;;;;12.23;87.96;100843.52;1695836;84;20964;-52
2021/09/17 05:52:14;;;;;;;7.33;4.50;;;;;;;12.34;87.09;100838.13;1696117;83;21127;-54
2021/09/17 05:54:41;;;;;;;8.03;4.20;;;;;;;12.44;86.46;100832.30;1695709;84;20913;-54
2021/09/17 05:57:09;;;;;;;13.90;4.47;;;;;;;12.57;85.97;100834.20;1695848;83;20984;-52
2021/09/17 05:59:36;;;;;;;10.60;5.33;;;;;;;12.70;85.01;100834.80;1695730;83;20957;-51
2021/09/17 06:02:05;;;;;;;12.80;4.35;;;;;;;12.83;84.83;100825.00;1695682;83;21066;-53
2021/09/17 06:04:33;;;;;;;9.25;3.72;;;;;;;12.98;83.74;100835.50;1695743;84;20889;-52
2021/09/17 06:06:59;;;;;;;11.63;4.15;;;;;;;13.14;83.07;100832.13;1666149;84;20984;-53
2021/09/17 06:09:27;;;;;;;16.45;4.37;;;;;;;13.29;82.62;100838.25;1695776;84;21470;-52
2021/09/17 06:11:55;;;;;;;13.38;4.35;;;;;;;13.42;81.38;100834.91;1695779;84;21450;-53
2021/09/17 06:14:22;;;;;;;13.68;4.42;;;;;;;13.59;79.02;100841.49;1665715;84;20975;-53
2021/09/17 06:16:50;;;;;;;12.40;4.53;;;;;;;13.75;78.63;100836.28;1695726;84;20909;-54
2021/09/17 06:19:16;;;;;;;10.63;4.47;;;;;;;13.92;77.76;100835.00;1695768;84;20996;-53
2021/09/17 06:21:44;;;;;;;11.35;5.55;;;;;;;14.12;77.43;100832.33;1695979;84;21021;-52
2021/09/17 06:24:11;;;;;;;15.98;4.90;;;;;;;14.31;76.35;100834.83;1695925;84;20957;-53
2021/09/17 06:26:37;;;;;;;13.70;5.30;;;;;;;14.49;75.58;100830.84;1696232;84;20960;-53
2021/09/17 06:29:06;;;;;;;11.73;5.92;;;;;;;14.66;74.71;100831.65;1695921;84;21141;-54
2021/09/17 06:31:35;;;;;;;18.32;6.35;;;;;;;14.85;74.35;100824.63;1695992;84;20945;-52
2021/09/17 06:34:04;;;;;;;16.23;5.72;;;;;;;15.01;74.10;100831.95;1694550;84;20956;-54
2021/09/17 06:36:32;;;;;;;9.85;4.50;;;;;;;15.18;73.12;100827.07;1695351;84;20889;-52
2021/09/17 06:39:04;;;;;;;9.35;4.92;;;;;;;15.33;72.72;100826.19;1696047;83;20956;-52
2021/09/17 06:41:30;;;;;;;16.40;5.10;;;;;;;15.50;71.44;100829.55;1695921;83;21035;-55
2021/09/17 06:43:58;;;;;;;9.45;4.55;;;;;;;15.68;68.16;100824.16;1695995;84;21019;-53
2021/09/17 06:46:24;;;;;;;14.78;4.17;;;;;;;15.90;68.97;100826.89;1696029;84;21041;-54
2021/09/17 06:48:51;;;;;;;10.48;4.53;;;;;;;16.14;67.39;100823.48;1695884;84;20945;-54
2021/09/17 06:51:19;;;;;;;7.53;4.00;;;;;;;16.37;67.04;100813.06;1696255;83;20995;-52
2021/09/17 06:53:45;;;;;;;17.80;4.85;;;;;;;16.62;66.09;100816.05;1696088;84;21119;-51
2021/09/17 06:56:12;;;;;;;9.30;3.75;;;;;;;16.90;65.64;100811.50;1665980;84;20908;-52
2021/09/17 06:58:40;;;;;;;8.05;3.35;;;;;;;17.09;63.52;100816.44;1696003;84;20968;-53
2021/09/17 07:01:06;;;;;;;8.70;3.65;;;;;;;17.23;62.71;100815.88;1696220;83;20976;-51
2021/09/17 07:03:33;;;;;;;8.05;3.83;;;;;;;17.35;62.04;100813.22;1710991;83;21508;-51
2021/09/17 07:06:00;;;;;;;8.50;3.67;;;;;;;17.41;61.86;100806.89;1701213;84;21770;-51
2021/09/17 07:08:27;;;;;;;9.13;3.95;;;;;;;17.47;60.72;100808.41;1680528;85;22196;-52
2021/09/17 07:10:53;;;;;;;11.53;4.03;;;;;;;17.52;60.70;100804.66;1710859;82;21541;-50
2021/09/17 07:13:22;;;;;;;11.78;4.10;;;;;;;17.61;61.11;100807.83;1701448;84;21538;-53
2021/09/17 07:15:48;;;;;;;8.38;3.80;;;;;;;17.71;61.05;100803.89;1680883;84;21011;-51
2021/09/17 07:18:17;;;;;;;12.20;4.00;;;;;;;17.83;60.71;100804.30;1711030;82;20967;-51
2021/09/17 07:20:44;;;;;;;12.07;3.80;;;;;;;17.95;60.60;100799.37;1680864;84;20888;-51
2021/09/17 07:23:11;;;;;;;5.75;3.87;;;;;;;18.03;58.96;100799.03;1710990;83;20904;-53
2021/09/17 07:25:39;;;;;;;8.65;3.65;;;;;;;18.12;58.65;100791.70;1701261;84;20928;-50
2021/09/17 07:28:06;;;;;;;11.53;4.62;;;;;;;18.22;58.31;100792.53;1684262;83;21410;-52
2021/09/17 07:30:32;;;;;;;9.53;4.05;;;;;;;18.36;57.21;100794.97;1682189;84;21475;-50
2021/09/17 07:32:59;;;;;;;9.95;3.75;;;;;;;18.52;57.52;100797.73;1708491;83;20917;-51
2021/09/17 07:35:26;;;;;;;7.75;3.83;;;;;;;18.67;57.48;100797.03;1700249;84;21007;-52
2021/09/17 07:37:53;;;;;;;9.88;3.75;;;;;;;18.84;56.22;100799.77;1682530;85;21044;-51
2021/09/17 07:40:21;;;;;;;10.95;3.40;;;;;;;19.00;52.26;100795.52;1637987;86;21044;-53
2021/09/17 07:42:48;;;;;;;7.85;3.42;;;;;;;19.19;51.11;100791.53;1670846;84;21104;-53
2021/09/17 07:45:16;;;;;;;10.58;3.10;;;;;;;19.39;47.22;100783.97;1673293;84;21553;-54
2021/09/17 07:47:44;;;;;;;10.05;3.45;;;;;;;19.64;48.05;100779.26;1675297;84;20999;-51
2021/09/17 07:50:11;;;;;;;10.03;3.72;;;;;;;19.88;47.79;100778.43;1670431;86;21039;-51
2021/09/17 07:52:38;;;;;;;15.15;4.53;;;;;;;20.06;46.39;100772.69;1673843;84;20943;-51
2021/09/17 07:55:07;;;;;;;26.20;5.45;;;;;;;20.21;45.21;100777.62;1684735;84;21120;-52
2021/09/17 07:57:33;;;;;;;12.30;3.90;;;;;;;20.29;44.30;100771.92;1643071;86;20999;-51
2021/09/17 07:59:59;;;;;;;28.45;8.55;;;;;;;20.42;44.24;100767.32;1673583;84;21047;-51
2021/09/17 08:02:26;;;;;;;13.05;4.28;;;;;;;20.55;43.84;100765.70;1629295;86;20965;-51
2021/09/17 08:04:52;;;;;;;22.52;4.55;;;;;;;20.71;43.06;100763.53;1697551;83;20939;-52
2021/09/17 08:07:19;;;;;;;19.40;4.25;;;;;;;20.85;43.79;100770.22;1697625;84;21058;-50
2021/09/17 08:09:47;;;;;;;19.17;3.50;;;;;;;20.97;43.58;100764.73;1697621;84;21003;-52
2021/09/17 08:12:14;;;;;;;18.87;3.62;;;;;;;21.09;40.52;100767.09;1700408;83;21018;-50
2021/09/17 08:14:40;;;;;;;11.28;3.62;;;;;;;21.21;42.50;100758.49;1699702;83;21030;-52
2021/09/17 08:17:08;;;;;;;8.80;3.58;;;;;;;21.33;40.95;100758.23;1699471;83;20939;-53
2021/09/17 08:19:35;;;;;;;14.13;3.60;;;;;;;21.38;39.38;100748.77;1697961;84;22210;-52
2021/09/17 08:22:01;;;;;;;4.65;3.12;;;;;;;21.43;39.16;100745.38;1698201;83;21591;-52
2021/09/17 08:24:28;;;;;;;8.45;2.90;;;;;;;21.58;40.11;100742.30;1670280;83;20947;-53
2021/09/17 08:26:57;;;;;;;11.73;3.37;;;;;;;21.78;40.07;100737.15;1726802;81;20936;-52
2021/09/17 08:29:24;;;;;;;10.18;2.90;;;;;;;22.03;39.01;100732.17;1726491;81;20888;-53
2021/09/17 08:31:54;;;;;;;10.48;3.37;;;;;;;22.25;38.53;100728.55;1726543;83;21132;-53
2021/09/17 08:34:21;;;;;;;16.50;2.92;;;;;;;22.46;41.05;100727.27;1704144;83;21520;-52
2021/09/17 08:36:50;;;;;;;5.05;3.00;;;;;;;22.64;40.60;100726.12;1704373;81;20987;-53
2021/09/17 08:39:16;;;;;;;9.78;3.05;;;;;;;22.87;39.90;100729.04;1726571;81;20935;-53
2021/09/17 08:41:45;;;;;;;9.88;2.92;;;;;;;23.05;39.41;100723.46;1722333;81;20923;-54
2021/09/17 08:44:13;;;;;;;11.95;4.10;;;;;;;23.18;40.07;100721.70;1726540;81;21792;-54
2021/09/17 08:46:41;;;;;;;11.15;3.37;;;;;;;23.31;36.49;100719.56;1700443;83;20947;-52
2021/09/17 08:49:09;;;;;;;11.93;3.20;;;;;;;23.36;37.43;100717.45;1726121;81;20943;-52
2021/09/17 08:51:37;;;;;;;11.55;3.75;;;;;;;23.53;39.58;100709.70;1726319;83;21492;-51
2021/09/17 08:54:04;;;;;;;9.15;3.42;;;;;;;23.80;36.18;100712.69;1710099;83;21026;-52
2021/09/17 08:56:32;;;;;;;15.15;3.58;;;;;;;23.98;36.66;100711.86;1705485;83;21185;-52
2021/09/17 08:58:59;;;;;;;9.75;3.55;;;;;;;24.11;36.34;100702.11;1712330;81;21039;-51
2021/09/17 09:01:30;;;;;;;11.73;3.42;;;;;;;24.27;35.65;100703.66;1713733;81;20947;-53
2021/09/17 09:04:02;;;;;;;6.97;3.45;;;;;;;24.39;35.10;100697.48;1717133;82;20953;-52
2021/09/17 09:06:38;;;;;;;8.88;3.33;;;;;;;24.60;35.33;100694.19;1706623;82;21012;-53
2021/09/17 09:09:17;;;;;;;11.53;3.33;;;;;;;24.91;35.11;100693.27;1735161;81;21037;-53
2021/09/17 09:11:47;;;;;;;5.22;3.37;;;;;;;25.10;35.05;100686.08;1717217;82;21538;-52
2021/09/17 09:14:15;;;;;;;5.70;3.10;;;;;;;25.16;34.71;100691.40;1739560;82;20940;-54
2021/09/17 09:16:46;;;;;;;7.05;3.12;;;;;;;25.26;34.78;100678.27;1732632;82;20992;-52
2021/09/17 09:19:20;;;;;;;13.62;4.05;;;;;;;25.38;34.57;100683.09;1709653;82;20897;-53
2021/09/17 09:22:06;;;;;;;13.58;4.05;;;;;;;25.55;34.27;100683.16;1736022;82;21157;-51
2021/09/17 09:24:39;;;;;;;10.43;3.50;;;;;;;25.69;34.45;100680.74;1735804;82;20972;-54
2021/09/17 09:27:09;;;;;;;7.30;3.47;;;;;;;25.89;34.06;100676.49;1730005;82;20968;-53
2021/09/17 09:29:36;;;;;;;14.47;3.65;;;;;;;25.95;32.12;100675.99;1660342;86;20968;-51
2021/09/17 09:32:04;;;;;;;9.60;3.70;;;;;;;25.81;33.03;100667.82;1686519;83;20972;-52
2021/09/17 09:34:56;;;;;;;7.92;3.30;;;;;;;25.66;32.80;100677.84;1635361;86;21065;-54
2021/09/17 09:37:28;;;;;;;16.95;3.55;;;;;;;25.53;32.58;100676.64;1706290;83;21027;-52
2021/09/17 09:40:00;;;;;;;11.63;3.83;;;;;;;25.52;33.15;100676.77;1705947;83;21509;-54
2021/09/17 09:42:42;;;;;;;14.70;3.47;;;;;;;25.67;31.58;100657.50;1706203;84;21502;-54
2021/09/17 09:45:22;;;;;;;9.18;3.92;;;;;;;25.71;32.63;100665.55;1717843;82;20980;-54
2021/09/17 09:47:53;;;;;;;16.42;3.65;;;;;;;25.81;32.15;100658.55;1726645;82;21371;-54
2021/09/17 09:50:24;;;;;;;13.20;3.72;;;;;;;26.03;33.59;100655.49;1706436;82;21065;-53
2021/09/17 09:52:55;;;;;;;10.05;3.85;;;;;;;26.23;31.96;100653.06;1725595;82;20934;-55
2021/09/17 09:55:22;;;;;;;17.98;3.58;;;;;;;26.34;33.06;100651.69;1727513;82;21512;-54
2021/09/17 09:57:48;;;;;;;13.60;4.47;;;;;;;26.54;32.38;100639.91;1721479;83;21519;-54
2021/09/17 10:00:17;;;;;;;11.88;3.45;;;;;;;26.75;31.64;100640.41;1731725;82;21319;-55
2021/09/17 10:02:45;;;;;;;17.70;4.00;;;;;;;27.01;31.25;100636.05;1738322;81;21419;-53
2021/09/17 10:05:14;;;;;;;35.20;4.60;;;;;;;27.22;32.43;100628.89;1743684;82;20845;-56
2021/09/17 10:07:41;;;;;;;20.27;4.10;;;;;;;27.32;31.53;100631.59;1743894;82;20976;-53
2021/09/17 10:10:10;;;;;;;7.85;3.70;;;;;;;27.11;28.57;100627.16;1723064;82;20952;-53
2021/09/17 10:12:38;;;;;;;28.27;4.30;;;;;;;26.86;28.74;100624.42;1686047;83;21155;-56
2021/09/17 10:18:36;;;;;;;11.20;4.12;;;;;;;27.04;30.98;100619.38;1769908;79;22730;-54
2021/09/17 10:21:02;;;;;;;13.60;4.47;;;;;;;27.05;29.59;100608.25;1724496;82;20933;-53
2021/09/17 10:23:33;;;;;;;17.35;4.17;;;;;;;27.07;30.29;100608.95;1734734;82;21083;-54
2021/09/17 10:26:07;;;;;;;25.30;4.87;;;;;;;27.21;31.97;100609.95;1737007;82;20893;-55
2021/09/17 10:28:37;;;;;;;47.80;5.03;;;;;;;27.29;31.57;100601.31;1748563;82;20936;-55
2021/09/17 10:31:14;;;;;;;30.48;4.75;;;;;;;27.45;31.15;100602.60;1720313;82;20917;-57
2021/09/17 10:33:40;;;;;;;16.95;3.95;;;;;;;27.45;29.25;100595.48;1749695;82;20893;-52
2021/09/17 10:36:07;;;;;;;40.40;5.62;;;;;;;27.48;29.93;100586.38;1749226;82;22025;-53
2021/09/17 10:38:35;;;;;;;16.60;4.90;;;;;;;27.52;29.77;100592.66;1748861;82;21489;-53
2021/09/17 10:41:06;;;;;;;21.55;4.78;;;;;;;27.39;30.71;100588.03;1748849;82;20952;-56
2021/09/17 10:43:47;;;;;;;14.87;4.05;;;;;;;27.43;30.63;100589.47;1744124;81;20951;-53
2021/09/17 10:46:28;;;;;;;16.93;4.35;;;;;;;27.35;28.99;100579.52;1731180;82;20976;-52
2021/09/17 10:48:57;;;;;;;35.85;5.70;;;;;;;27.22;27.07;100573.11;1739539;81;21215;-55
2021/09/17 10:51:41;;;;;;;16.62;4.78;;;;;;;26.84;30.47;100579.87;1748541;81;20888;-53
2021/09/17 10:54:24;;;;;;;17.75;4.03;;;;;;;26.66;29.09;100567.70;1733669;82;21019;-55
2021/09/17 10:57:02;;;;;;;25.08;4.00;;;;;;;26.74;29.61;100558.59;1740878;82;21475;-55
2021/09/17 10:59:40;;;;;;;22.55;4.60;;;;;;;27.02;29.00;100559.39;1748163;81;21003;-54
2021/09/17 11:02:08;;;;;;;29.12;4.35;;;;;;;27.19;29.37;100557.44;1735801;82;21784;-56
2021/09/17 11:04:45;;;;;;;18.23;3.75;;;;;;;27.19;29.28;100557.44;1705113;82;20922;-54
2021/09/17 11:07:32;;;;;;;12.00;3.52;;;;;;;27.21;29.59;100559.47;1703298;84;20973;-56
2021/09/17 11:09:56;;;;;;;15.08;4.20;;;;;;;27.31;29.21;100548.02;1702536;84;20961;-53
2021/09/17 11:12:27;;;;;;;12.13;3.90;;;;;;;27.46;28.10;100544.02;1703619;83;20946;-54
2021/09/17 11:15:04;;;;;;;16.20;4.15;;;;;;;27.38;28.08;100539.38;1719892;83;21763;-52
2021/09/17 11:17:49;;;;;;;22.82;4.75;;;;;;;27.43;29.20;100532.34;1713567;83;21498;-53
2021/09/17 11:20:19;;;;;;;19.02;4.42;;;;;;;27.44;29.48;100531.83;1706818;83;20905;-55
2021/09/17 11:22:58;;;;;;;14.35;4.25;;;;;;;27.48;27.36;100523.45;1678425;84;21029;-54
2021/09/17 11:25:29;;;;;;;19.07;4.80;;;;;;;27.42;27.49;100524.49;1656173;85;20948;-55